createdAt,value
2023-12-09T00:00:41.481Z,3.17
2023-12-09T00:03:12.783Z,3.15
2023-12-09T00:05:43.652Z,3.24
2023-12-09T00:08:13.954Z,3.19
2023-12-09T00:10:47.465Z,3.11
2023-12-09T00:13:26.492Z,3.15
2023-12-09T00:15:57.362Z,3.13
2023-12-09T00:18:28.143Z,3.14
2023-12-09T00:21:04.541Z,3.03
2023-12-09T00:23:35.555Z,3.01
2023-12-09T00:26:24.147Z,3.12
2023-12-09T00:28:57.009Z,3.10
2023-12-09T00:31:32.561Z,3.09
2023-12-09T00:34:03.041Z,3.07
2023-12-09T00:36:38.846Z,3.09
2023-12-09T00:39:09.669Z,3.08
2023-12-09T00:41:40.435Z,3.13
2023-12-09T00:44:18.599Z,3.02
2023-12-09T00:46:49.546Z,2.96
2023-12-09T00:49:27.579Z,2.96
2023-12-09T00:52:04.380Z,2.98
2023-12-09T00:54:35.392Z,2.98
2023-12-09T00:57:06.057Z,2.91
2023-12-09T00:59:39.337Z,2.91
2023-12-09T01:02:10.077Z,2.89
2023-12-09T01:04:41.461Z,2.96
2023-12-09T01:07:15.871Z,2.95
2023-12-09T01:09:46.753Z,2.85
2023-12-09T01:12:17.254Z,2.84
2023-12-09T01:14:56.879Z,2.97
2023-12-09T01:17:28.346Z,2.92
2023-12-09T01:20:04.618Z,2.92
2023-12-09T01:25:28.387Z,2.93
2023-12-09T01:27:59.256Z,3.01
2023-12-09T01:30:35.350Z,3.03
2023-12-09T01:33:06.362Z,2.97
2023-12-09T01:35:37.289Z,2.99
2023-12-09T01:38:15.131Z,3.10
2023-12-09T01:40:47.278Z,3.12
2023-12-09T01:43:18.423Z,3.11
2023-12-09T01:45:56.738Z,3.08
2023-12-09T01:48:27.102Z,3.05
2023-12-09T01:51:03.276Z,3.05
2023-12-09T01:53:34.730Z,3.09
2023-12-09T01:56:20.454Z,3.12
2023-12-09T01:58:53.913Z,3.12
2023-12-09T02:01:45.499Z,3.18
2023-12-09T02:04:18.430Z,3.14
2023-12-09T02:06:49.092Z,3.12
2023-12-09T02:09:22.952Z,3.13
2023-12-09T02:12:03.944Z,3.17
2023-12-09T02:14:41.172Z,3.13
2023-12-09T02:17:28.808Z,3.14
2023-12-09T02:20:04.456Z,3.11
2023-12-09T02:22:40.962Z,3.12
2023-12-09T02:25:15.211Z,3.11
2023-12-09T02:27:54.952Z,3.04
2023-12-09T02:30:32.352Z,3.03
2023-12-09T02:33:06.885Z,3.06
2023-12-09T02:35:43.955Z,3.06
2023-12-09T02:38:16.034Z,3.03
2023-12-09T02:40:53.782Z,2.82
2023-12-09T02:43:24.226Z,2.84
2023-12-09T02:46:03.369Z,2.77
2023-12-09T02:48:34.651Z,2.78
2023-12-09T02:51:07.915Z,2.70
2023-12-09T02:53:45.591Z,2.73
2023-12-09T02:56:22.674Z,2.76
2023-12-09T02:58:56.135Z,2.78
2023-12-09T03:01:26.399Z,2.83
2023-12-09T03:04:01.494Z,2.77
2023-12-09T03:06:35.054Z,2.63
2023-12-09T03:09:06.168Z,2.58
2023-12-09T03:11:44.270Z,2.54
2023-12-09T03:14:15.423Z,2.56
2023-12-09T03:16:59.889Z,2.55
2023-12-09T03:19:30.773Z,2.51
2023-12-09T03:22:04.434Z,2.56
2023-12-09T03:24:35.505Z,2.60
2023-12-09T03:27:16.149Z,2.65
2023-12-09T03:29:52.124Z,2.62
2023-12-09T03:32:22.696Z,2.62
2023-12-09T03:34:53.104Z,2.62
2023-12-09T03:37:23.917Z,2.62
2023-12-09T03:39:59.498Z,2.69
2023-12-09T03:42:35.849Z,2.69
2023-12-09T03:45:06.573Z,2.78
2023-12-09T03:47:37.504Z,2.69
2023-12-09T03:50:08.383Z,2.76
2023-12-09T03:52:42.917Z,2.70
2023-12-09T03:55:18.677Z,2.70
2023-12-09T03:57:55.130Z,2.69
2023-12-09T04:00:27.088Z,2.71
2023-12-09T04:03:00.899Z,2.71
2023-12-09T04:05:31.202Z,2.77
2023-12-09T04:08:10.960Z,2.82
2023-12-09T04:10:41.730Z,2.76
2023-12-09T04:13:20.580Z,2.80
2023-12-09T04:15:51.880Z,2.86
2023-12-09T04:18:23.137Z,2.80
2023-12-09T04:20:58.879Z,2.86
2023-12-09T04:23:29.430Z,2.85
2023-12-09T04:26:03.220Z,2.76
2023-12-09T04:28:36.700Z,2.83
2023-12-09T04:31:09.402Z,2.83
2023-12-09T04:33:45.593Z,2.87
2023-12-09T04:36:17.826Z,2.83
2023-12-09T04:38:49.172Z,2.82
2023-12-09T04:41:20.975Z,2.76
2023-12-09T04:43:54.962Z,2.83
2023-12-09T04:46:25.322Z,2.81
2023-12-09T04:48:58.102Z,2.87
2023-12-09T04:51:30.154Z,2.88
2023-12-09T04:54:01.083Z,2.80
2023-12-09T04:56:32.194Z,2.80
2023-12-09T04:59:12.758Z,2.87
2023-12-09T05:01:43.901Z,2.87
2023-12-09T05:04:15.782Z,2.83
2023-12-09T05:06:50.232Z,2.82
2023-12-09T05:09:26.117Z,2.81
2023-12-09T05:11:57.451Z,2.75
2023-12-09T05:14:33.433Z,2.80
2023-12-09T05:17:11.311Z,2.79
2023-12-09T05:19:44.646Z,2.76
2023-12-09T05:22:16.833Z,2.71
2023-12-09T05:24:54.024Z,2.68
2023-12-09T05:27:34.392Z,2.64
2023-12-09T05:30:08.914Z,2.62
2023-12-09T05:32:40.916Z,2.58
2023-12-09T05:35:12.050Z,2.54
2023-12-09T05:37:45.712Z,2.56
2023-12-09T05:40:17.070Z,2.52
2023-12-09T05:42:47.903Z,2.47
2023-12-09T05:45:21.189Z,2.42
2023-12-09T05:48:07.390Z,2.45
2023-12-09T05:50:39.206Z,2.52
2023-12-09T05:53:10.545Z,2.58
2023-12-09T05:55:46.465Z,2.63
2023-12-09T05:58:22.314Z,2.58
2023-12-09T06:00:58.147Z,2.49
2023-12-09T06:03:29.119Z,2.52
2023-12-09T06:05:59.835Z,2.59
2023-12-09T06:08:36.058Z,2.68
2023-12-09T06:11:14.684Z,2.64
2023-12-09T06:13:55.336Z,2.65
2023-12-09T06:16:28.509Z,2.67
2023-12-09T06:18:59.518Z,2.63
2023-12-09T06:21:34.743Z,2.63
2023-12-09T06:24:05.518Z,2.69
2023-12-09T06:26:37.156Z,2.69
2023-12-09T06:29:17.063Z,2.59
2023-12-09T06:31:52.220Z,2.64
2023-12-09T06:34:31.192Z,2.66
2023-12-09T06:37:09.346Z,2.65
2023-12-09T06:39:40.227Z,2.64
2023-12-09T06:42:11.478Z,2.68
2023-12-09T06:44:44.036Z,2.73
2023-12-09T06:47:21.109Z,2.71
2023-12-09T06:49:54.613Z,2.78
2023-12-09T06:52:30.577Z,2.81
2023-12-09T06:55:04.466Z,2.78
2023-12-09T06:57:35.929Z,2.72
2023-12-09T07:00:11.094Z,2.81
2023-12-09T07:02:56.502Z,2.82
2023-12-09T07:05:30.478Z,2.81
2023-12-09T07:08:04.624Z,2.89
2023-12-09T07:10:37.810Z,2.84
2023-12-09T07:13:09.412Z,2.88
2023-12-09T07:15:45.631Z,2.88
2023-12-09T07:18:21.125Z,2.95
2023-12-09T07:21:01.870Z,2.88
2023-12-09T07:23:35.670Z,2.88
2023-12-09T07:26:12.102Z,2.91
2023-12-09T07:28:42.838Z,2.84
2023-12-09T07:31:13.622Z,2.87
2023-12-09T07:33:47.287Z,2.85
2023-12-09T07:36:18.834Z,2.91
2023-12-09T07:38:49.929Z,2.91
2023-12-09T07:41:23.799Z,2.93
2023-12-09T07:44:00.263Z,2.96
2023-12-09T07:46:34.162Z,3.18
2023-12-09T07:49:10.771Z,3.14
2023-12-09T07:51:41.656Z,3.15
2023-12-09T07:54:15.375Z,3.18
2023-12-09T07:56:48.209Z,3.19
2023-12-09T07:59:20.990Z,3.26
2023-12-09T08:01:52.137Z,3.21
2023-12-09T08:04:26.117Z,3.29
2023-12-09T08:06:59.985Z,3.24
2023-12-09T08:09:31.831Z,3.21
2023-12-09T08:12:09.100Z,3.29
2023-12-09T08:14:42.346Z,3.25
2023-12-09T08:17:18.718Z,3.34
2023-12-09T08:19:51.732Z,3.35
2023-12-09T08:22:24.023Z,3.35
2023-12-09T08:24:58.120Z,3.29
2023-12-09T08:27:29.155Z,3.32
2023-12-09T08:30:02.216Z,3.35
2023-12-09T08:32:43.169Z,3.47
2023-12-09T08:35:16.871Z,3.40
2023-12-09T08:37:52.482Z,3.48
2023-12-09T08:40:32.473Z,3.47
2023-12-09T08:43:03.502Z,3.41
2023-12-09T08:45:35.811Z,3.50
2023-12-09T08:48:08.774Z,3.53
2023-12-09T08:50:42.155Z,3.60
2023-12-09T08:53:15.655Z,3.69
2023-12-09T08:55:46.366Z,3.70
2023-12-09T08:58:18.393Z,3.75
2023-12-09T09:00:54.138Z,3.73
2023-12-09T09:03:24.791Z,3.68
2023-12-09T09:06:02.793Z,3.71
2023-12-09T09:08:36.050Z,3.78
2023-12-09T09:11:14.993Z,3.79
2023-12-09T09:13:45.833Z,3.75
2023-12-09T09:16:20.294Z,3.86
2023-12-09T09:18:51.800Z,3.92
2023-12-09T09:21:31.880Z,3.90
2023-12-09T09:24:03.775Z,3.90
2023-12-09T09:26:39.706Z,3.90
2023-12-09T09:29:11.845Z,3.82
2023-12-09T09:31:46.741Z,3.88
2023-12-09T09:34:23.746Z,3.95
2023-12-09T09:37:04.197Z,3.96
2023-12-09T09:39:36.564Z,4.03
2023-12-09T09:42:20.497Z,4.13
2023-12-09T09:45:09.900Z,4.05
2023-12-09T09:47:44.717Z,4.09
2023-12-09T09:50:17.295Z,4.23
2023-12-09T09:52:52.045Z,4.27
2023-12-09T09:55:23.964Z,4.35
2023-12-09T09:57:57.897Z,4.38
2023-12-09T10:00:32.857Z,4.48
2023-12-09T10:03:04.934Z,4.56
2023-12-09T10:05:36.476Z,4.58
2023-12-09T10:08:13.000Z,4.71
2023-12-09T10:10:44.132Z,4.75
2023-12-09T10:13:21.671Z,4.81
2023-12-09T10:15:52.090Z,4.76
2023-12-09T10:18:27.286Z,4.79
2023-12-09T10:20:59.325Z,4.92
2023-12-09T10:23:36.913Z,5.18
2023-12-09T10:26:08.371Z,5.14
2023-12-09T10:28:45.049Z,5.21
2023-12-09T10:31:21.160Z,5.25
2023-12-09T10:33:55.800Z,5.22
2023-12-09T10:36:27.185Z,5.19
2023-12-09T10:39:01.447Z,5.23
2023-12-09T10:41:32.191Z,5.33
2023-12-09T10:44:07.007Z,5.26
2023-12-09T10:46:40.019Z,5.33
2023-12-09T10:49:24.304Z,5.44
2023-12-09T10:52:00.676Z,5.62
2023-12-09T10:54:36.159Z,5.72
2023-12-09T10:57:10.569Z,5.73
2023-12-09T10:59:45.109Z,5.80
2023-12-09T11:02:19.568Z,5.70
2023-12-09T11:04:50.808Z,5.76
2023-12-09T11:07:21.465Z,5.57
2023-12-09T11:09:58.462Z,5.47
2023-12-09T11:12:33.985Z,5.66
2023-12-09T11:15:11.448Z,5.91
2023-12-09T11:17:43.013Z,5.90
2023-12-09T11:20:20.882Z,6.01
2023-12-09T11:23:00.999Z,5.89
2023-12-09T11:25:37.119Z,5.71
2023-12-09T11:28:10.698Z,5.61
2023-12-09T11:30:45.538Z,5.58
2023-12-09T11:33:21.043Z,5.57
2023-12-09T11:35:53.004Z,5.41
2023-12-09T11:38:26.152Z,5.26
2023-12-09T11:40:59.754Z,5.28
2023-12-09T11:43:30.205Z,5.28
2023-12-09T11:46:03.462Z,5.31
2023-12-09T11:48:34.990Z,5.36
2023-12-09T11:51:11.282Z,5.30
2023-12-09T11:53:56.060Z,5.22
2023-12-09T11:56:30.605Z,5.27
2023-12-09T11:59:02.029Z,5.24
2023-12-09T12:01:37.991Z,5.24
2023-12-09T12:04:12.652Z,5.27
2023-12-09T12:06:44.953Z,5.29
2023-12-09T12:09:16.011Z,5.31
2023-12-09T12:11:53.392Z,5.28
2023-12-09T12:14:24.435Z,5.24
2023-12-09T12:16:58.202Z,5.29
2023-12-09T12:19:29.873Z,5.25
2023-12-09T12:22:04.921Z,5.18
2023-12-09T12:24:47.150Z,5.13
2023-12-09T12:27:25.846Z,5.12
2023-12-09T12:30:00.980Z,5.02
2023-12-09T12:32:39.717Z,5.04
2023-12-09T12:35:19.596Z,4.96
2023-12-09T12:37:52.173Z,4.80
2023-12-09T12:40:33.249Z,4.85
2023-12-09T12:43:08.942Z,4.90
2023-12-09T12:45:42.217Z,4.82
2023-12-09T12:48:15.733Z,4.79
2023-12-09T12:50:49.594Z,4.78
2023-12-09T12:53:24.521Z,4.84
2023-12-09T12:56:01.251Z,4.81
2023-12-09T12:58:37.076Z,4.82
2023-12-09T13:01:11.245Z,4.87
2023-12-09T13:03:51.370Z,4.91
2023-12-09T13:06:22.458Z,4.93
2023-12-09T13:08:53.585Z,4.96
2023-12-09T13:11:26.750Z,4.97
2023-12-09T13:14:00.009Z,4.96
2023-12-09T13:16:33.148Z,4.91
2023-12-09T13:19:03.937Z,4.85
2023-12-09T13:21:43.362Z,4.86
2023-12-09T13:24:15.625Z,4.87
2023-12-09T13:26:56.195Z,4.87
2023-12-09T13:29:29.488Z,4.86
2023-12-09T13:32:03.363Z,4.83
2023-12-09T13:34:40.118Z,4.83
2023-12-09T13:37:14.729Z,4.75
2023-12-09T13:39:48.224Z,4.78
2023-12-09T13:42:19.228Z,4.77
2023-12-09T13:44:53.136Z,4.77
2023-12-09T13:47:24.121Z,4.75
2023-12-09T13:49:55.328Z,4.77
2023-12-09T13:52:28.291Z,4.78
2023-12-09T13:55:03.342Z,4.79
2023-12-09T13:57:33.845Z,4.81
2023-12-09T14:00:14.707Z,4.82
2023-12-09T14:02:46.895Z,4.83
2023-12-09T14:05:19.968Z,4.82
2023-12-09T14:08:01.173Z,4.80
2023-12-09T14:10:34.350Z,4.76
2023-12-09T14:13:05.549Z,4.73
2023-12-09T14:15:39.179Z,4.72
2023-12-09T14:18:15.485Z,4.69
2023-12-09T14:20:51.014Z,4.72
2023-12-09T14:23:21.959Z,4.68
2023-12-09T14:25:53.332Z,4.66
2023-12-09T14:28:26.988Z,4.63
2023-12-09T14:31:07.530Z,4.58
2023-12-09T14:33:43.027Z,4.53
2023-12-09T14:36:20.081Z,4.49
2023-12-09T14:38:57.743Z,4.50
2023-12-09T14:41:28.616Z,4.46
2023-12-09T14:44:08.646Z,4.47
2023-12-09T14:46:45.375Z,4.46
2023-12-09T14:49:16.750Z,4.41
2023-12-09T14:51:53.125Z,4.37
2023-12-09T14:54:27.410Z,4.33
2023-12-09T14:57:02.395Z,4.34
2023-12-09T14:59:32.789Z,4.32
2023-12-09T15:02:07.573Z,4.33
2023-12-09T15:04:40.600Z,4.31
2023-12-09T15:07:14.853Z,4.28
2023-12-09T15:09:48.692Z,4.27
2023-12-09T15:12:29.413Z,4.27
2023-12-09T15:15:02.402Z,4.26
2023-12-09T15:17:48.061Z,4.26
2023-12-09T15:20:23.028Z,4.22
2023-12-09T15:23:00.990Z,4.16
2023-12-09T15:25:34.703Z,4.15
2023-12-09T15:28:05.177Z,4.12
2023-12-09T15:30:38.038Z,4.18
2023-12-09T15:33:11.648Z,4.14
2023-12-09T15:35:44.919Z,4.12
2023-12-09T15:38:18.990Z,4.12
2023-12-09T15:40:50.304Z,4.08
2023-12-09T15:43:21.188Z,4.10
2023-12-09T15:45:53.761Z,4.13
2023-12-09T15:48:30.452Z,4.12
2023-12-09T15:51:06.486Z,4.11
2023-12-09T15:53:43.131Z,4.09
2023-12-09T15:56:17.421Z,4.08
2023-12-09T15:58:59.127Z,4.10
2023-12-09T16:01:33.388Z,4.08
2023-12-09T16:04:23.083Z,4.07
2023-12-09T16:07:09.074Z,4.05
2023-12-09T16:09:44.681Z,4.01
2023-12-09T16:12:24.566Z,3.99
2023-12-09T16:14:55.557Z,3.99
2023-12-09T16:17:29.191Z,3.97
2023-12-09T16:20:09.606Z,3.90
2023-12-09T16:22:46.204Z,3.91
2023-12-09T16:25:17.006Z,3.84
2023-12-09T16:27:49.673Z,3.85
2023-12-09T16:30:22.943Z,3.84
2023-12-09T16:33:03.408Z,3.85
2023-12-09T16:35:37.054Z,3.85
2023-12-09T16:38:10.062Z,3.83
2023-12-09T16:40:41.575Z,3.81
2023-12-09T16:43:12.498Z,3.79
2023-12-09T16:45:44.692Z,3.79
2023-12-09T16:48:15.670Z,3.79
2023-12-09T16:50:51.819Z,3.79
2023-12-09T16:53:27.491Z,3.79
2023-12-09T16:56:05.158Z,3.82
2023-12-09T16:58:35.548Z,3.80
2023-12-09T17:01:18.583Z,3.73
2023-12-09T17:03:49.595Z,3.70
2023-12-09T17:06:23.142Z,3.68
2023-12-09T17:08:59.883Z,3.66
2023-12-09T17:11:37.944Z,3.66
2023-12-09T17:14:08.819Z,3.69
2023-12-09T17:16:38.885Z,3.71
2023-12-09T17:19:18.871Z,3.69
2023-12-09T17:21:58.139Z,3.70
2023-12-09T17:24:32.975Z,3.70
2023-12-09T17:27:06.410Z,3.68
2023-12-09T17:29:37.063Z,3.67
2023-12-09T17:32:11.664Z,3.67
2023-12-09T17:34:42.713Z,3.65
2023-12-09T17:37:16.009Z,3.65
2023-12-09T17:39:46.434Z,3.64
2023-12-09T17:42:16.849Z,3.66
2023-12-09T17:44:47.610Z,3.64
2023-12-09T17:47:23.383Z,3.70
2023-12-09T17:49:55.059Z,3.67
2023-12-09T17:52:37.640Z,3.60
2023-12-09T17:55:10.214Z,3.57
2023-12-09T17:57:41.464Z,3.60
2023-12-09T18:00:13.027Z,3.61
2023-12-09T18:02:46.462Z,3.62
2023-12-09T18:05:21.517Z,3.59
2023-12-09T18:08:00.504Z,3.61
2023-12-09T18:10:31.972Z,3.61
2023-12-09T18:13:06.590Z,3.60
2023-12-09T18:15:45.582Z,3.61
2023-12-09T18:18:17.404Z,3.61
2023-12-09T18:20:52.976Z,3.60
2023-12-09T18:23:26.765Z,3.65
2023-12-09T18:26:01.106Z,3.59
2023-12-09T18:28:32.310Z,3.61
2023-12-09T18:31:16.020Z,3.62
2023-12-09T18:33:47.690Z,3.59
2023-12-09T18:36:19.371Z,3.59
2023-12-09T18:38:55.764Z,3.60
2023-12-09T18:41:32.572Z,3.63
2023-12-09T18:44:13.104Z,3.66
2023-12-09T18:46:54.004Z,3.70
2023-12-09T18:49:32.069Z,3.65
2023-12-09T18:52:19.231Z,3.63
2023-12-09T18:54:56.308Z,3.65
2023-12-09T18:57:26.713Z,3.64
2023-12-09T18:59:59.025Z,3.62
2023-12-09T19:02:33.927Z,3.60
2023-12-09T19:05:05.269Z,3.60
2023-12-09T19:07:39.653Z,3.53
2023-12-09T19:10:14.352Z,3.47
2023-12-09T19:12:49.832Z,3.52
2023-12-09T19:15:22.271Z,3.50
2023-12-09T19:17:52.698Z,3.52
2023-12-09T19:20:23.758Z,3.52
2023-12-09T19:22:55.276Z,3.53
2023-12-09T19:25:28.261Z,3.55
2023-12-09T19:28:00.406Z,3.55
2023-12-09T19:30:38.232Z,3.54
2023-12-09T19:33:09.007Z,3.56
2023-12-09T19:35:45.504Z,3.53
2023-12-09T19:38:18.632Z,3.54
2023-12-09T19:40:57.948Z,3.55
2023-12-09T19:43:36.716Z,3.49
2023-12-09T19:46:13.638Z,3.46
2023-12-09T19:48:44.761Z,3.53
2023-12-09T19:51:15.770Z,3.51
2023-12-09T19:53:46.433Z,3.48
2023-12-09T19:56:19.304Z,3.46
2023-12-09T19:58:49.976Z,3.46
2023-12-09T20:01:23.007Z,3.45
2023-12-09T20:03:53.962Z,3.45
2023-12-09T20:06:28.710Z,3.44
2023-12-09T20:09:01.964Z,3.41
2023-12-09T20:11:38.036Z,3.44
2023-12-09T20:14:09.198Z,3.41
2023-12-09T20:16:39.853Z,3.35
2023-12-09T20:19:10.912Z,3.30
2023-12-09T20:21:42.080Z,3.29
2023-12-09T20:24:13.162Z,3.32
2023-12-09T20:26:46.925Z,3.33
2023-12-09T20:29:18.246Z,3.30
2023-12-09T20:31:48.326Z,3.33
2023-12-09T20:34:23.445Z,3.26
2023-12-09T20:36:55.195Z,3.30
2023-12-09T20:39:29.369Z,3.29
2023-12-09T20:42:08.603Z,3.30
2023-12-09T20:44:39.492Z,3.27
2023-12-09T20:47:15.191Z,3.37
2023-12-09T20:49:53.376Z,3.34
2023-12-09T20:52:26.153Z,3.30
2023-12-09T20:54:56.916Z,3.31
2023-12-09T20:57:31.457Z,3.31
2023-12-09T21:00:06.915Z,3.34
2023-12-09T21:02:37.991Z,3.32
2023-12-09T21:05:09.060Z,3.32
2023-12-09T21:07:46.289Z,3.34
2023-12-09T21:10:20.134Z,3.25
2023-12-09T21:12:57.925Z,3.26
2023-12-09T21:15:29.823Z,3.29
2023-12-09T21:18:07.868Z,3.17
2023-12-09T21:20:39.922Z,3.18
2023-12-09T21:23:13.133Z,3.15
2023-12-09T21:25:43.597Z,3.06
2023-12-09T21:28:17.751Z,3.08
2023-12-09T21:30:53.476Z,3.04
2023-12-09T21:33:25.274Z,3.12
2023-12-09T21:35:58.831Z,3.12
2023-12-09T21:38:31.049Z,3.17
2023-12-09T21:41:01.919Z,3.22
2023-12-09T21:43:34.887Z,3.16
2023-12-09T21:46:05.884Z,3.20
2023-12-09T21:48:37.068Z,3.21
2023-12-09T21:51:07.677Z,3.21
2023-12-09T21:53:40.973Z,3.21
2023-12-09T21:56:22.455Z,3.20
2023-12-09T21:58:56.505Z,3.20
2023-12-09T22:01:27.726Z,3.24
2023-12-09T22:03:58.707Z,3.24
2023-12-09T22:06:35.585Z,3.28
2023-12-09T22:09:07.552Z,3.17
2023-12-09T22:11:40.620Z,3.17
2023-12-09T22:14:14.053Z,3.18
2023-12-09T22:16:45.235Z,3.17
2023-12-09T22:19:20.079Z,3.14
2023-12-09T22:21:51.176Z,3.07
2023-12-09T22:24:24.391Z,3.02
2023-12-09T22:26:56.149Z,3.07
2023-12-09T22:29:33.486Z,3.04
2023-12-09T22:32:04.336Z,3.14
2023-12-09T22:34:36.278Z,3.09
2023-12-09T22:37:06.912Z,3.03
2023-12-09T22:39:39.932Z,3.10
2023-12-09T22:42:11.469Z,3.04
2023-12-09T22:44:48.720Z,3.04
2023-12-09T22:47:25.518Z,2.99
2023-12-09T22:49:56.421Z,3.04
2023-12-09T22:52:27.174Z,2.96
2023-12-09T22:54:58.232Z,2.98
2023-12-09T22:57:29.964Z,3.00
2023-12-09T23:00:05.099Z,2.98
2023-12-09T23:02:36.028Z,2.93
2023-12-09T23:05:06.783Z,2.97
2023-12-09T23:07:37.674Z,3.00
2023-12-09T23:10:09.535Z,2.97
2023-12-09T23:12:40.449Z,2.97
2023-12-09T23:15:14.386Z,3.00
2023-12-09T23:17:47.807Z,2.97
2023-12-09T23:20:19.529Z,3.05
2023-12-09T23:22:50.724Z,2.97
2023-12-09T23:25:23.271Z,2.98
2023-12-09T23:27:54.167Z,3.06
2023-12-09T23:30:31.737Z,2.94
2023-12-09T23:33:03.946Z,2.95
2023-12-09T23:35:34.835Z,2.93
2023-12-09T23:38:11.262Z,2.84
2023-12-09T23:40:42.178Z,2.81
2023-12-09T23:43:14.720Z,2.78
2023-12-09T23:45:48.235Z,2.88
2023-12-09T23:48:19.536Z,2.90
2023-12-09T23:50:50.882Z,2.93
2023-12-09T23:53:22.241Z,2.98
2023-12-09T23:55:52.275Z,3.02
2023-12-09T23:58:22.747Z,3.01
